createdAt,value
2018-11-12T00:00:37.090Z,10.40
2018-11-12T00:05:55.607Z,10.44
2018-11-12T00:11:14.181Z,10.38
2018-11-12T00:16:32.715Z,10.40
2018-11-12T00:21:51.338Z,10.41
2018-11-12T00:27:09.849Z,10.43
2018-11-12T00:32:28.489Z,10.30
2018-11-12T00:37:47.058Z,10.25
2018-11-12T00:43:05.754Z,10.29
2018-11-12T00:48:24.313Z,10.35
2018-11-12T00:53:42.824Z,10.32
2018-11-12T00:59:01.364Z,10.19
2018-11-12T01:04:20.008Z,10.16
2018-11-12T01:09:38.616Z,10.32
2018-11-12T01:14:57.208Z,10.06
2018-11-12T01:20:16.639Z,10.00
2018-11-12T01:25:35.197Z,10.02
2018-11-12T01:30:57.863Z,10.11
2018-11-12T01:36:17.552Z,10.24
2018-11-12T01:41:36.468Z,10.33
2018-11-12T01:46:56.651Z,10.33
2018-11-12T01:52:15.203Z,10.38
2018-11-12T01:57:33.682Z,10.36
2018-11-12T02:02:53.244Z,10.40
2018-11-12T02:08:11.820Z,10.49
2018-11-12T02:13:30.826Z,10.51
2018-11-12T02:18:49.362Z,10.49
2018-11-12T02:24:07.912Z,10.46
2018-11-12T02:29:26.704Z,10.51
2018-11-12T02:34:45.504Z,10.46
2018-11-12T02:40:04.410Z,10.46
2018-11-12T02:45:23.560Z,10.45
2018-11-12T02:50:42.610Z,10.52
2018-11-12T02:56:01.224Z,10.51
2018-11-12T03:01:23.608Z,10.52
2018-11-12T03:06:42.828Z,10.58
2018-11-12T03:12:01.350Z,10.59
2018-11-12T03:17:19.955Z,10.66
2018-11-12T03:22:39.622Z,10.68
2018-11-12T03:27:58.723Z,10.67
2018-11-12T03:33:17.223Z,10.68
2018-11-12T03:38:35.755Z,10.69
2018-11-12T03:43:55.492Z,10.71
2018-11-12T03:49:14.645Z,10.72
2018-11-12T03:54:33.187Z,10.71
2018-11-12T03:59:51.819Z,10.71
2018-11-12T04:05:10.538Z,10.72
2018-11-12T04:10:29.463Z,10.70
2018-11-12T04:15:47.963Z,10.65
2018-11-12T04:21:06.830Z,10.64
2018-11-12T04:26:25.364Z,10.67
2018-11-12T04:31:44.735Z,10.72
2018-11-12T04:37:03.395Z,10.64
2018-11-12T04:42:21.928Z,10.62
2018-11-12T04:47:41.316Z,10.62
2018-11-12T04:53:00.978Z,10.63
2018-11-12T04:58:20.046Z,10.59
2018-11-12T05:03:39.662Z,10.58
2018-11-12T05:08:58.941Z,10.57
2018-11-12T05:14:17.486Z,10.58
2018-11-12T05:19:36.002Z,10.57
2018-11-12T05:24:54.629Z,10.57
2018-11-12T05:30:15.633Z,10.50
2018-11-12T05:35:40.839Z,10.53
2018-11-12T05:40:59.461Z,10.50
2018-11-12T05:46:17.975Z,10.49
2018-11-12T05:51:36.517Z,10.51
2018-11-12T05:56:56.031Z,10.54
2018-11-12T06:02:15.005Z,10.60
2018-11-12T06:07:33.576Z,10.54
2018-11-12T06:12:52.334Z,10.57
2018-11-12T06:18:10.851Z,10.54
2018-11-12T06:23:29.431Z,10.49
2018-11-12T06:28:48.042Z,10.52
2018-11-12T06:34:06.891Z,10.55
2018-11-12T06:39:25.408Z,10.66
2018-11-12T06:44:43.941Z,10.66
2018-11-12T06:50:02.650Z,10.51
2018-11-12T06:55:21.658Z,10.48
2018-11-12T07:00:40.206Z,10.42
2018-11-12T07:05:58.734Z,10.41
2018-11-12T07:11:17.905Z,10.45
2018-11-12T07:16:37.143Z,10.46
2018-11-12T07:21:55.711Z,10.38
2018-11-12T07:27:14.834Z,10.30
2018-11-12T07:32:33.378Z,10.32
2018-11-12T07:37:53.419Z,10.42
2018-11-12T07:43:11.915Z,10.52
2018-11-12T07:48:30.489Z,10.37
2018-11-12T07:53:49.040Z,10.38
2018-11-12T07:59:07.611Z,10.41
2018-11-12T08:04:26.785Z,10.53
2018-11-12T08:09:45.379Z,10.65
2018-11-12T08:15:04.019Z,10.67
2018-11-12T08:20:24.074Z,10.72
2018-11-12T08:25:43.144Z,10.72
2018-11-12T08:31:01.647Z,10.75
2018-11-12T08:36:20.245Z,10.75
2018-11-12T08:41:39.441Z,10.89
2018-11-12T08:46:57.992Z,10.86
2018-11-12T08:52:16.567Z,10.97
2018-11-12T08:57:35.855Z,11.01
2018-11-12T09:02:54.412Z,11.04
2018-11-12T09:08:12.949Z,11.27
2018-11-12T09:13:31.794Z,11.23
2018-11-12T09:18:50.331Z,11.41
2018-11-12T09:24:08.966Z,11.50
2018-11-12T09:29:27.579Z,11.58
2018-11-12T09:34:46.064Z,11.69
2018-11-12T09:40:05.082Z,12.01
2018-11-12T09:45:23.674Z,12.44
2018-11-12T09:50:42.372Z,12.91
2018-11-12T09:56:01.553Z,13.25
2018-11-12T10:01:20.417Z,13.83
2018-11-12T10:06:40.323Z,14.12
2018-11-12T10:11:59.631Z,14.36
2018-11-12T10:17:20.335Z,14.61
2018-11-12T10:22:35.018Z,14.97
2018-11-12T10:27:53.582Z,15.16
2018-11-12T10:33:12.111Z,15.23
2018-11-12T10:38:30.612Z,15.10
2018-11-12T10:43:49.160Z,15.14
2018-11-12T10:49:07.663Z,15.24
2018-11-12T10:54:26.373Z,15.51
2018-11-12T10:59:45.593Z,15.64
2018-11-12T11:05:04.059Z,15.78
2018-11-12T11:10:23.831Z,16.01
2018-11-12T11:15:43.275Z,16.11
2018-11-12T11:21:02.485Z,16.05
2018-11-12T11:26:21.004Z,16.06
2018-11-12T11:31:39.613Z,16.03
2018-11-12T11:36:58.794Z,16.19
2018-11-12T11:42:17.566Z,16.35
2018-11-12T11:47:36.661Z,16.54
2018-11-12T11:52:55.151Z,16.69
2018-11-12T11:58:14.117Z,16.77
2018-11-12T12:03:32.665Z,16.80
2018-11-12T12:08:51.275Z,16.88
2018-11-12T12:14:09.754Z,16.81
2018-11-12T12:19:28.326Z,16.74
2018-11-12T12:24:47.098Z,16.82
2018-11-12T12:30:09.477Z,16.74
2018-11-12T12:35:28.787Z,16.69
2018-11-12T12:40:47.407Z,16.61
2018-11-12T12:46:06.552Z,16.65
2018-11-12T12:51:25.743Z,16.55
2018-11-12T12:56:44.463Z,16.43
2018-11-12T13:02:03.419Z,16.22
2018-11-12T13:07:22.023Z,15.88
2018-11-12T13:12:41.273Z,15.67
2018-11-12T13:17:59.941Z,15.19
2018-11-12T13:23:19.390Z,14.69
2018-11-12T13:28:37.972Z,14.38
2018-11-12T13:33:57.445Z,14.20
2018-11-12T13:39:16.072Z,14.06
2018-11-12T13:44:35.208Z,13.88
2018-11-12T13:49:53.891Z,13.86
2018-11-12T13:55:13.507Z,13.81
2018-11-12T14:00:32.220Z,13.78
2018-11-12T14:05:51.443Z,13.71
2018-11-12T14:11:10.653Z,13.63
2018-11-12T14:16:29.172Z,13.55
2018-11-12T14:21:47.768Z,13.42
2018-11-12T14:27:06.462Z,13.28
2018-11-12T14:32:26.198Z,13.25
2018-11-12T14:37:46.767Z,13.16
2018-11-12T14:43:05.860Z,13.07
2018-11-12T14:48:24.554Z,13.04
2018-11-12T14:53:44.958Z,12.99
2018-11-12T14:59:04.742Z,13.01
2018-11-12T15:04:23.302Z,12.90
2018-11-12T15:09:43.482Z,12.89
2018-11-12T15:15:02.136Z,12.83
2018-11-12T15:20:20.943Z,12.75
2018-11-12T15:25:39.905Z,12.65
2018-11-12T15:30:58.584Z,12.48
2018-11-12T15:36:17.792Z,12.45
2018-11-12T15:41:36.806Z,12.45
2018-11-12T15:46:55.367Z,12.34
2018-11-12T15:52:14.029Z,12.31
2018-11-12T15:57:33.654Z,12.24
2018-11-12T16:02:52.336Z,12.10
2018-11-12T16:08:10.943Z,12.09
2018-11-12T16:13:30.615Z,12.10
2018-11-12T16:18:49.360Z,12.08
2018-11-12T16:24:08.361Z,12.09
2018-11-12T16:29:28.507Z,12.02
2018-11-12T16:34:47.047Z,12.00
2018-11-12T16:40:06.320Z,11.93
2018-11-12T16:45:24.916Z,11.92
2018-11-12T16:50:43.469Z,12.00
2018-11-12T16:56:03.276Z,11.86
2018-11-12T17:01:23.443Z,11.70
2018-11-12T17:06:42.710Z,11.60
2018-11-12T17:12:02.009Z,11.63
2018-11-12T17:17:20.607Z,11.57
2018-11-12T17:22:39.195Z,11.43
2018-11-12T17:27:57.824Z,11.38
2018-11-12T17:33:16.520Z,11.41
2018-11-12T17:38:35.138Z,11.39
2018-11-12T17:43:54.424Z,11.30
2018-11-12T17:49:13.112Z,11.36
2018-11-12T17:54:31.926Z,11.36
2018-11-12T17:59:50.435Z,11.37
2018-11-12T18:05:10.644Z,11.38
2018-11-12T18:10:29.282Z,11.38
2018-11-12T18:15:49.064Z,11.31
2018-11-12T18:21:08.352Z,11.35
2018-11-12T18:26:26.947Z,11.31
2018-11-12T18:31:45.893Z,11.28
2018-11-12T18:37:04.355Z,11.19
2018-11-12T18:42:23.035Z,11.12
2018-11-12T18:47:42.103Z,11.11
2018-11-12T18:53:00.804Z,11.15
2018-11-12T18:58:19.875Z,11.24
2018-11-12T19:03:39.796Z,11.14
2018-11-12T19:08:58.782Z,11.17
2018-11-12T19:14:17.534Z,11.22
2018-11-12T19:19:36.134Z,11.09
2018-11-12T19:24:55.324Z,11.05
2018-11-12T19:30:16.328Z,11.08
2018-11-12T19:35:35.710Z,11.03
2018-11-12T19:40:55.847Z,11.00
2018-11-12T19:46:15.412Z,11.01
2018-11-12T19:51:34.261Z,10.97
2018-11-12T19:56:54.856Z,10.85
2018-11-12T20:02:15.122Z,10.91
2018-11-12T20:07:33.768Z,10.99
2018-11-12T20:12:52.900Z,11.00
2018-11-12T20:18:12.031Z,10.98
2018-11-12T20:23:30.657Z,10.96
2018-11-12T20:28:49.308Z,11.00
2018-11-12T20:34:08.309Z,10.98
2018-11-12T20:39:27.408Z,10.95
2018-11-12T20:44:46.302Z,10.97
2018-11-12T20:50:06.119Z,11.02
2018-11-12T20:55:24.745Z,10.90
2018-11-12T21:00:43.404Z,10.89
2018-11-12T21:06:02.020Z,10.88
2018-11-12T21:11:20.773Z,10.94
2018-11-12T21:16:39.768Z,11.03
2018-11-12T21:21:58.465Z,11.06
2018-11-12T21:27:17.129Z,11.00
2018-11-12T21:32:36.032Z,10.94
2018-11-12T21:37:55.675Z,10.89
2018-11-12T21:43:14.388Z,11.00
2018-11-12T21:48:32.884Z,10.92
2018-11-12T21:53:51.412Z,10.91
2018-11-12T21:59:10.010Z,10.84
2018-11-12T22:04:28.567Z,10.79
2018-11-12T22:09:47.199Z,10.71
2018-11-12T22:15:07.075Z,10.68
2018-11-12T22:20:27.013Z,10.65
2018-11-12T22:25:46.163Z,10.51
2018-11-12T22:31:05.320Z,10.43
2018-11-12T22:36:23.905Z,10.41
2018-11-12T22:41:42.533Z,10.34
2018-11-12T22:47:07.580Z,10.30
2018-11-12T22:52:26.299Z,10.22
2018-11-12T22:57:47.018Z,10.19
2018-11-12T23:03:06.678Z,10.23
2018-11-12T23:08:25.885Z,10.13
2018-11-12T23:13:44.523Z,10.15
2018-11-12T23:19:03.159Z,10.11
2018-11-12T23:24:21.804Z,10.08
2018-11-12T23:29:40.415Z,10.05
2018-11-12T23:34:59.062Z,10.01
2018-11-12T23:40:18.688Z,10.00
2018-11-12T23:45:37.299Z,10.07
2018-11-12T23:50:55.900Z,10.07
2018-11-12T23:56:14.457Z,10.03
